sensor_id;sensor_type;location;lat;lon;timestamp;temperature;humidity
60313;DHT22;46158;52.850;6.970;2022-10-15T00:02:07;17.90;86.70
60313;DHT22;46158;52.850;6.970;2022-10-15T00:04:33;17.90;86.70
60313;DHT22;46158;52.850;6.970;2022-10-15T00:06:58;17.90;86.60
60313;DHT22;46158;52.850;6.970;2022-10-15T00:09:24;17.90;86.50
60313;DHT22;46158;52.850;6.970;2022-10-15T00:11:50;17.90;86.50
60313;DHT22;46158;52.850;6.970;2022-10-15T00:14:16;17.90;86.40
60313;DHT22;46158;52.850;6.970;2022-10-15T00:16:42;17.90;86.40
60313;DHT22;46158;52.850;6.970;2022-10-15T00:19:08;17.90;86.30
60313;DHT22;46158;52.850;6.970;2022-10-15T00:21:34;17.90;86.30
60313;DHT22;46158;52.850;6.970;2022-10-15T00:24:00;17.90;86.30
60313;DHT22;46158;52.850;6.970;2022-10-15T00:26:27;17.90;86.30
60313;DHT22;46158;52.850;6.970;2022-10-15T00:28:59;17.80;86.10
60313;DHT22;46158;52.850;6.970;2022-10-15T00:31:27;17.90;86.20
60313;DHT22;46158;52.850;6.970;2022-10-15T00:33:55;17.80;86.00
60313;DHT22;46158;52.850;6.970;2022-10-15T00:36:24;17.80;86.00
60313;DHT22;46158;52.850;6.970;2022-10-15T00:38:51;17.80;86.00
60313;DHT22;46158;52.850;6.970;2022-10-15T00:41:22;17.80;86.00
60313;DHT22;46158;52.850;6.970;2022-10-15T00:43:57;17.80;85.90
60313;DHT22;46158;52.850;6.970;2022-10-15T00:46:34;17.80;85.90
60313;DHT22;46158;52.850;6.970;2022-10-15T00:49:21;17.80;86.50
60313;DHT22;46158;52.850;6.970;2022-10-15T00:52:01;17.80;85.70
60313;DHT22;46158;52.850;6.970;2022-10-15T00:54:31;17.80;86.50
60313;DHT22;46158;52.850;6.970;2022-10-15T00:56:58;17.70;85.70
60313;DHT22;46158;52.850;6.970;2022-10-15T00:59:26;17.70;85.70
60313;DHT22;46158;52.850;6.970;2022-10-15T01:01:53;17.70;85.60
60313;DHT22;46158;52.850;6.970;2022-10-15T01:04:20;17.70;85.50
60313;DHT22;46158;52.850;6.970;2022-10-15T01:06:47;17.70;85.50
60313;DHT22;46158;52.850;6.970;2022-10-15T01:09:13;17.70;85.50
60313;DHT22;46158;52.850;6.970;2022-10-15T01:11:45;17.70;85.50
60313;DHT22;46158;52.850;6.970;2022-10-15T01:26:00;17.60;85.30
60313;DHT22;46158;52.850;6.970;2022-10-15T01:29:11;17.60;85.30
60313;DHT22;46158;52.850;6.970;2022-10-15T01:32:01;17.60;85.30
60313;DHT22;46158;52.850;6.970;2022-10-15T01:40:43;17.60;85.30
60313;DHT22;46158;52.850;6.970;2022-10-15T01:43:14;17.50;85.10
60313;DHT22;46158;52.850;6.970;2022-10-15T01:46:11;17.50;85.20
60313;DHT22;46158;52.850;6.970;2022-10-15T01:48:39;17.50;85.10
60313;DHT22;46158;52.850;6.970;2022-10-15T01:51:06;17.50;85.20
60313;DHT22;46158;52.850;6.970;2022-10-15T01:53:35;17.50;85.10
60313;DHT22;46158;52.850;6.970;2022-10-15T01:56:14;17.50;85.10
60313;DHT22;46158;52.850;6.970;2022-10-15T01:58:43;17.50;84.90
60313;DHT22;46158;52.850;6.970;2022-10-15T02:01:10;17.50;85.10
60313;DHT22;46158;52.850;6.970;2022-10-15T02:06:14;17.50;84.90
60313;DHT22;46158;52.850;6.970;2022-10-15T02:11:18;17.40;84.90
60313;DHT22;46158;52.850;6.970;2022-10-15T02:14:39;17.40;84.80
60313;DHT22;46158;52.850;6.970;2022-10-15T02:16:52;17.40;84.80
60313;DHT22;46158;52.850;6.970;2022-10-15T02:19:50;17.40;84.80
60313;DHT22;46158;52.850;6.970;2022-10-15T02:22:25;17.40;84.80
60313;DHT22;46158;52.850;6.970;2022-10-15T02:25:01;17.40;84.80
60313;DHT22;46158;52.850;6.970;2022-10-15T02:27:29;17.40;84.80
60313;DHT22;46158;52.850;6.970;2022-10-15T02:29:57;17.40;84.80
60313;DHT22;46158;52.850;6.970;2022-10-15T02:32:24;17.40;84.70
60313;DHT22;46158;52.850;6.970;2022-10-15T02:34:51;17.40;84.70
60313;DHT22;46158;52.850;6.970;2022-10-15T02:37:22;17.40;84.70
60313;DHT22;46158;52.850;6.970;2022-10-15T02:39:48;17.30;84.60
60313;DHT22;46158;52.850;6.970;2022-10-15T02:42:17;17.30;84.60
60313;DHT22;46158;52.850;6.970;2022-10-15T02:44:44;17.30;84.50
60313;DHT22;46158;52.850;6.970;2022-10-15T02:47:09;17.30;84.60
60313;DHT22;46158;52.850;6.970;2022-10-15T02:49:36;17.30;84.50
60313;DHT22;46158;52.850;6.970;2022-10-15T02:52:02;17.30;84.60
60313;DHT22;46158;52.850;6.970;2022-10-15T02:54:27;17.30;84.50
60313;DHT22;46158;52.850;6.970;2022-10-15T02:56:53;17.30;84.50
60313;DHT22;46158;52.850;6.970;2022-10-15T02:59:19;17.30;84.50
60313;DHT22;46158;52.850;6.970;2022-10-15T03:01:45;17.30;84.50
60313;DHT22;46158;52.850;6.970;2022-10-15T03:04:11;17.30;84.50
60313;DHT22;46158;52.850;6.970;2022-10-15T03:06:36;17.30;84.50
60313;DHT22;46158;52.850;6.970;2022-10-15T03:09:03;17.20;84.40
60313;DHT22;46158;52.850;6.970;2022-10-15T03:11:29;17.30;84.40
60313;DHT22;46158;52.850;6.970;2022-10-15T03:13:54;17.20;84.40
60313;DHT22;46158;52.850;6.970;2022-10-15T03:16:20;17.20;84.30
60313;DHT22;46158;52.850;6.970;2022-10-15T03:18:46;17.20;84.30
60313;DHT22;46158;52.850;6.970;2022-10-15T03:21:12;17.20;84.30
60313;DHT22;46158;52.850;6.970;2022-10-15T03:23:38;17.20;84.30
60313;DHT22;46158;52.850;6.970;2022-10-15T03:26:04;17.20;84.30
60313;DHT22;46158;52.850;6.970;2022-10-15T03:28:29;17.20;84.30
60313;DHT22;46158;52.850;6.970;2022-10-15T03:30:55;17.20;84.30
60313;DHT22;46158;52.850;6.970;2022-10-15T03:33:21;17.20;84.30
60313;DHT22;46158;52.850;6.970;2022-10-15T03:35:47;17.20;84.20
60313;DHT22;46158;52.850;6.970;2022-10-15T03:38:12;17.20;84.20
60313;DHT22;46158;52.850;6.970;2022-10-15T03:40:38;17.10;84.10
60313;DHT22;46158;52.850;6.970;2022-10-15T03:43:04;17.10;84.10
60313;DHT22;46158;52.850;6.970;2022-10-15T03:45:29;17.10;84.10
60313;DHT22;46158;52.850;6.970;2022-10-15T03:47:56;17.20;84.20
60313;DHT22;46158;52.850;6.970;2022-10-15T03:50:22;17.10;84.10
60313;DHT22;46158;52.850;6.970;2022-10-15T03:52:47;17.10;84.10
60313;DHT22;46158;52.850;6.970;2022-10-15T03:55:13;17.10;84.10
60313;DHT22;46158;52.850;6.970;2022-10-15T03:57:39;17.10;84.00
60313;DHT22;46158;52.850;6.970;2022-10-15T04:00:06;17.10;84.00
60313;DHT22;46158;52.850;6.970;2022-10-15T04:02:32;17.10;84.00
60313;DHT22;46158;52.850;6.970;2022-10-15T04:04:58;17.10;84.00
60313;DHT22;46158;52.850;6.970;2022-10-15T04:07:24;17.10;84.00
60313;DHT22;46158;52.850;6.970;2022-10-15T04:09:50;17.10;84.00
60313;DHT22;46158;52.850;6.970;2022-10-15T04:12:15;17.10;84.00
60313;DHT22;46158;52.850;6.970;2022-10-15T04:14:41;17.10;84.00
60313;DHT22;46158;52.850;6.970;2022-10-15T04:17:07;17.10;84.60
60313;DHT22;46158;52.850;6.970;2022-10-15T04:19:33;17.10;84.00
60313;DHT22;46158;52.850;6.970;2022-10-15T04:21:59;17.00;83.90
60313;DHT22;46158;52.850;6.970;2022-10-15T04:24:24;17.00;83.90
60313;DHT22;46158;52.850;6.970;2022-10-15T04:26:50;17.00;83.90
60313;DHT22;46158;52.850;6.970;2022-10-15T04:29:16;17.00;83.80
60313;DHT22;46158;52.850;6.970;2022-10-15T04:31:42;17.00;83.80
60313;DHT22;46158;52.850;6.970;2022-10-15T04:34:08;17.00;83.80
60313;DHT22;46158;52.850;6.970;2022-10-15T04:36:34;17.00;83.80
60313;DHT22;46158;52.850;6.970;2022-10-15T04:39:00;17.00;83.80
60313;DHT22;46158;52.850;6.970;2022-10-15T04:41:26;17.00;83.80
60313;DHT22;46158;52.850;6.970;2022-10-15T04:43:52;17.00;83.80
60313;DHT22;46158;52.850;6.970;2022-10-15T04:46:18;17.00;83.80
60313;DHT22;46158;52.850;6.970;2022-10-15T04:48:47;16.90;83.70
60313;DHT22;46158;52.850;6.970;2022-10-15T04:51:15;16.90;83.70
60313;DHT22;46158;52.850;6.970;2022-10-15T04:53:42;16.90;83.70
60313;DHT22;46158;52.850;6.970;2022-10-15T04:56:11;17.00;83.80
60313;DHT22;46158;52.850;6.970;2022-10-15T04:58:40;16.90;83.70
60313;DHT22;46158;52.850;6.970;2022-10-15T05:01:08;16.90;83.70
60313;DHT22;46158;52.850;6.970;2022-10-15T05:03:36;16.90;83.70
60313;DHT22;46158;52.850;6.970;2022-10-15T05:06:22;16.90;83.70
60313;DHT22;46158;52.850;6.970;2022-10-15T05:08:49;16.90;83.60
60313;DHT22;46158;52.850;6.970;2022-10-15T05:11:17;16.90;83.70
60313;DHT22;46158;52.850;6.970;2022-10-15T05:13:43;16.90;83.70
60313;DHT22;46158;52.850;6.970;2022-10-15T05:16:20;16.90;83.70
60313;DHT22;46158;52.850;6.970;2022-10-15T05:18:48;16.90;83.70
60313;DHT22;46158;52.850;6.970;2022-10-15T05:21:18;16.90;83.80
60313;DHT22;46158;52.850;6.970;2022-10-15T05:23:44;16.90;83.80
60313;DHT22;46158;52.850;6.970;2022-10-15T05:26:14;16.90;83.80
60313;DHT22;46158;52.850;6.970;2022-10-15T05:28:40;16.90;83.80
60313;DHT22;46158;52.850;6.970;2022-10-15T05:31:07;16.90;83.80
60313;DHT22;46158;52.850;6.970;2022-10-15T05:33:34;16.90;83.80
60313;DHT22;46158;52.850;6.970;2022-10-15T05:36:15;16.80;83.80
60313;DHT22;46158;52.850;6.970;2022-10-15T05:38:46;16.90;83.80
60313;DHT22;46158;52.850;6.970;2022-10-15T05:41:12;16.80;83.90
60313;DHT22;46158;52.850;6.970;2022-10-15T05:43:38;16.80;83.90
60313;DHT22;46158;52.850;6.970;2022-10-15T05:46:04;16.80;83.90
60313;DHT22;46158;52.850;6.970;2022-10-15T05:48:29;16.80;83.90
60313;DHT22;46158;52.850;6.970;2022-10-15T05:51:06;16.80;83.80
60313;DHT22;46158;52.850;6.970;2022-10-15T05:53:32;16.80;83.80
60313;DHT22;46158;52.850;6.970;2022-10-15T05:55:58;16.80;83.80
60313;DHT22;46158;52.850;6.970;2022-10-15T05:58:25;16.80;84.50
60313;DHT22;46158;52.850;6.970;2022-10-15T06:00:58;16.80;83.80
60313;DHT22;46158;52.850;6.970;2022-10-15T06:03:25;16.80;83.80
60313;DHT22;46158;52.850;6.970;2022-10-15T06:05:51;16.80;83.80
60313;DHT22;46158;52.850;6.970;2022-10-15T06:08:17;16.80;83.80
60313;DHT22;46158;52.850;6.970;2022-10-15T06:10:43;16.80;83.80
60313;DHT22;46158;52.850;6.970;2022-10-15T06:13:09;16.80;83.80
60313;DHT22;46158;52.850;6.970;2022-10-15T06:15:38;16.80;83.80
60313;DHT22;46158;52.850;6.970;2022-10-15T06:18:05;16.80;83.80
60313;DHT22;46158;52.850;6.970;2022-10-15T06:20:31;16.70;83.80
60313;DHT22;46158;52.850;6.970;2022-10-15T06:22:58;16.70;83.80
60313;DHT22;46158;52.850;6.970;2022-10-15T06:25:24;16.80;83.90
60313;DHT22;46158;52.850;6.970;2022-10-15T06:27:50;16.80;84.00
60313;DHT22;46158;52.850;6.970;2022-10-15T06:30:16;16.70;84.00
60313;DHT22;46158;52.850;6.970;2022-10-15T06:32:51;16.70;83.90
60313;DHT22;46158;52.850;6.970;2022-10-15T06:35:19;16.70;83.90
60313;DHT22;46158;52.850;6.970;2022-10-15T06:37:45;16.70;83.90
60313;DHT22;46158;52.850;6.970;2022-10-15T06:40:12;16.70;84.00
60313;DHT22;46158;52.850;6.970;2022-10-15T06:42:38;16.70;84.10
60313;DHT22;46158;52.850;6.970;2022-10-15T06:45:04;16.70;84.10
60313;DHT22;46158;52.850;6.970;2022-10-15T06:47:30;16.70;84.20
60313;DHT22;46158;52.850;6.970;2022-10-15T06:49:56;16.80;84.30
60313;DHT22;46158;52.850;6.970;2022-10-15T06:52:21;16.70;84.20
60313;DHT22;46158;52.850;6.970;2022-10-15T06:54:48;16.70;84.20
60313;DHT22;46158;52.850;6.970;2022-10-15T06:57:13;16.70;84.20
60313;DHT22;46158;52.850;6.970;2022-10-15T06:59:39;16.70;84.20
60313;DHT22;46158;52.850;6.970;2022-10-15T07:02:05;16.70;84.20
60313;DHT22;46158;52.850;6.970;2022-10-15T07:04:31;16.70;84.30
60313;DHT22;46158;52.850;6.970;2022-10-15T07:06:56;16.70;84.30
60313;DHT22;46158;52.850;6.970;2022-10-15T07:09:22;16.70;84.30
60313;DHT22;46158;52.850;6.970;2022-10-15T07:11:48;16.70;84.40
60313;DHT22;46158;52.850;6.970;2022-10-15T07:14:13;16.70;84.40
60313;DHT22;46158;52.850;6.970;2022-10-15T07:16:39;16.70;84.40
60313;DHT22;46158;52.850;6.970;2022-10-15T07:19:05;16.70;84.40
60313;DHT22;46158;52.850;6.970;2022-10-15T07:21:31;16.70;84.40
60313;DHT22;46158;52.850;6.970;2022-10-15T07:23:56;16.70;85.00
60313;DHT22;46158;52.850;6.970;2022-10-15T07:26:23;16.70;84.30
60313;DHT22;46158;52.850;6.970;2022-10-15T07:28:49;16.70;84.40
60313;DHT22;46158;52.850;6.970;2022-10-15T07:31:15;16.70;84.50
60313;DHT22;46158;52.850;6.970;2022-10-15T07:33:44;16.70;84.50
60313;DHT22;46158;52.850;6.970;2022-10-15T07:36:10;16.70;84.60
60313;DHT22;46158;52.850;6.970;2022-10-15T07:38:39;16.60;84.60
60313;DHT22;46158;52.850;6.970;2022-10-15T07:41:06;16.60;84.70
60313;DHT22;46158;52.850;6.970;2022-10-15T07:43:33;16.60;84.80
60313;DHT22;46158;52.850;6.970;2022-10-15T07:45:59;16.70;85.00
60313;DHT22;46158;52.850;6.970;2022-10-15T07:48:25;16.60;85.00
60313;DHT22;46158;52.850;6.970;2022-10-15T07:51:11;16.60;85.10
60313;DHT22;46158;52.850;6.970;2022-10-15T07:53:37;16.60;85.10
60313;DHT22;46158;52.850;6.970;2022-10-15T07:56:06;16.60;85.40
60313;DHT22;46158;52.850;6.970;2022-10-15T07:58:35;16.60;85.40
60313;DHT22;46158;52.850;6.970;2022-10-15T08:01:04;16.60;85.60
60313;DHT22;46158;52.850;6.970;2022-10-15T08:03:30;16.60;85.70
60313;DHT22;46158;52.850;6.970;2022-10-15T08:05:59;16.60;85.70
60313;DHT22;46158;52.850;6.970;2022-10-15T08:08:25;16.60;85.90
60313;DHT22;46158;52.850;6.970;2022-10-15T08:10:50;16.60;85.90
60313;DHT22;46158;52.850;6.970;2022-10-15T08:13:16;16.60;86.00
60313;DHT22;46158;52.850;6.970;2022-10-15T08:15:42;16.60;86.10
60313;DHT22;46158;52.850;6.970;2022-10-15T08:18:10;16.60;86.20
60313;DHT22;46158;52.850;6.970;2022-10-15T08:20:36;16.60;86.10
60313;DHT22;46158;52.850;6.970;2022-10-15T08:23:03;16.70;86.30
60313;DHT22;46158;52.850;6.970;2022-10-15T08:25:29;16.70;86.40
60313;DHT22;46158;52.850;6.970;2022-10-15T08:27:57;16.70;86.40
60313;DHT22;46158;52.850;6.970;2022-10-15T08:30:23;16.60;86.40
60313;DHT22;46158;52.850;6.970;2022-10-15T08:32:48;16.70;86.50
60313;DHT22;46158;52.850;6.970;2022-10-15T08:35:14;16.70;86.60
60313;DHT22;46158;52.850;6.970;2022-10-15T08:37:40;16.70;87.30
60313;DHT22;46158;52.850;6.970;2022-10-15T08:40:06;16.70;86.60
60313;DHT22;46158;52.850;6.970;2022-10-15T08:42:42;16.70;86.60
60313;DHT22;46158;52.850;6.970;2022-10-15T08:45:41;16.70;86.60
60313;DHT22;46158;52.850;6.970;2022-10-15T08:48:17;16.70;86.50
60313;DHT22;46158;52.850;6.970;2022-10-15T08:51:13;16.70;86.70
60313;DHT22;46158;52.850;6.970;2022-10-15T08:53:47;16.70;86.70
60313;DHT22;46158;52.850;6.970;2022-10-15T08:56:20;16.70;86.90
60313;DHT22;46158;52.850;6.970;2022-10-15T08:59:51;16.70;86.90
60313;DHT22;46158;52.850;6.970;2022-10-15T09:02:24;16.70;86.80
60313;DHT22;46158;52.850;6.970;2022-10-15T09:07:50;16.70;86.90
60313;DHT22;46158;52.850;6.970;2022-10-15T09:10:46;16.70;86.80
60313;DHT22;46158;52.850;6.970;2022-10-15T09:15:53;16.70;86.90
60313;DHT22;46158;52.850;6.970;2022-10-15T09:18:24;16.70;86.90
60313;DHT22;46158;52.850;6.970;2022-10-15T09:20:51;16.70;86.90
60313;DHT22;46158;52.850;6.970;2022-10-15T09:23:21;16.70;86.90
60313;DHT22;46158;52.850;6.970;2022-10-15T09:25:57;16.70;86.80
60313;DHT22;46158;52.850;6.970;2022-10-15T09:28:41;16.70;86.70
60313;DHT22;46158;52.850;6.970;2022-10-15T09:31:09;16.70;86.70
60313;DHT22;46158;52.850;6.970;2022-10-15T09:44:14;16.60;86.60
60313;DHT22;46158;52.850;6.970;2022-10-15T09:46:47;16.60;86.70
60313;DHT22;46158;52.850;6.970;2022-10-15T09:49:13;16.60;86.70
60313;DHT22;46158;52.850;6.970;2022-10-15T09:56:55;16.60;86.60
60313;DHT22;46158;52.850;6.970;2022-10-15T09:59:22;16.60;86.70
60313;DHT22;46158;52.850;6.970;2022-10-15T10:01:58;16.50;86.70
60313;DHT22;46158;52.850;6.970;2022-10-15T10:04:30;16.60;86.60
60313;DHT22;46158;52.850;6.970;2022-10-15T10:06:59;16.60;86.60
60313;DHT22;46158;52.850;6.970;2022-10-15T10:09:38;16.50;86.70
60313;DHT22;46158;52.850;6.970;2022-10-15T10:12:36;16.60;86.60
60313;DHT22;46158;52.850;6.970;2022-10-15T10:15:35;16.60;86.60
60313;DHT22;46158;52.850;6.970;2022-10-15T10:18:02;16.50;86.60
60313;DHT22;46158;52.850;6.970;2022-10-15T10:20:32;16.50;86.70
60313;DHT22;46158;52.850;6.970;2022-10-15T10:23:19;16.50;86.70
60313;DHT22;46158;52.850;6.970;2022-10-15T10:25:45;16.50;86.70
60313;DHT22;46158;52.850;6.970;2022-10-15T10:28:17;16.50;86.70
60313;DHT22;46158;52.850;6.970;2022-10-15T10:35:53;16.50;86.80
60313;DHT22;46158;52.850;6.970;2022-10-15T10:38:36;16.50;87.10
60313;DHT22;46158;52.850;6.970;2022-10-15T10:41:08;16.50;87.20
60313;DHT22;46158;52.850;6.970;2022-10-15T10:43:39;16.60;87.20
60313;DHT22;46158;52.850;6.970;2022-10-15T10:48:40;16.60;87.30
60313;DHT22;46158;52.850;6.970;2022-10-15T10:51:10;16.60;87.30
60313;DHT22;46158;52.850;6.970;2022-10-15T10:56:11;16.60;87.20
60313;DHT22;46158;52.850;6.970;2022-10-15T10:58:40;16.50;87.20
60313;DHT22;46158;52.850;6.970;2022-10-15T11:01:12;16.60;87.30
60313;DHT22;46158;52.850;6.970;2022-10-15T11:03:40;16.60;87.20
60313;DHT22;46158;52.850;6.970;2022-10-15T11:06:32;16.60;87.20
60313;DHT22;46158;52.850;6.970;2022-10-15T11:14:32;16.60;87.30
60313;DHT22;46158;52.850;6.970;2022-10-15T11:19:46;16.60;87.30
60313;DHT22;46158;52.850;6.970;2022-10-15T11:22:46;16.60;87.40
60313;DHT22;46158;52.850;6.970;2022-10-15T11:25:33;16.60;87.30
60313;DHT22;46158;52.850;6.970;2022-10-15T11:31:18;16.60;87.40
60313;DHT22;46158;52.850;6.970;2022-10-15T11:33:56;16.60;87.40
60313;DHT22;46158;52.850;6.970;2022-10-15T11:36:52;16.60;87.50
60313;DHT22;46158;52.850;6.970;2022-10-15T11:52:49;16.60;87.50
60313;DHT22;46158;52.850;6.970;2022-10-15T11:55:21;16.60;87.40
60313;DHT22;46158;52.850;6.970;2022-10-15T11:57:51;16.60;87.60
60313;DHT22;46158;52.850;6.970;2022-10-15T12:00:28;16.60;87.50
60313;DHT22;46158;52.850;6.970;2022-10-15T12:06:05;16.60;87.50
60313;DHT22;46158;52.850;6.970;2022-10-15T12:08:34;16.60;87.50
60313;DHT22;46158;52.850;6.970;2022-10-15T12:13:56;16.60;87.40
60313;DHT22;46158;52.850;6.970;2022-10-15T12:16:45;16.60;87.40
60313;DHT22;46158;52.850;6.970;2022-10-15T12:19:20;16.60;87.50
60313;DHT22;46158;52.850;6.970;2022-10-15T12:29:41;16.70;87.50
60313;DHT22;46158;52.850;6.970;2022-10-15T12:32:27;16.70;87.60
60313;DHT22;46158;52.850;6.970;2022-10-15T12:34:59;16.70;87.40
60313;DHT22;46158;52.850;6.970;2022-10-15T12:37:33;16.70;87.40
60313;DHT22;46158;52.850;6.970;2022-10-15T12:40:17;16.70;87.40
60313;DHT22;46158;52.850;6.970;2022-10-15T12:42:56;16.70;87.30
60313;DHT22;46158;52.850;6.970;2022-10-15T12:45:50;16.70;87.30
60313;DHT22;46158;52.850;6.970;2022-10-15T12:48:31;16.70;87.30
60313;DHT22;46158;52.850;6.970;2022-10-15T12:53:52;16.70;87.10
60313;DHT22;46158;52.850;6.970;2022-10-15T12:56:24;16.70;87.30
60313;DHT22;46158;52.850;6.970;2022-10-15T12:58:59;16.70;87.30
60313;DHT22;46158;52.850;6.970;2022-10-15T13:01:29;16.70;87.20
60313;DHT22;46158;52.850;6.970;2022-10-15T13:04:14;16.70;87.20
60313;DHT22;46158;52.850;6.970;2022-10-15T13:06:40;16.70;87.30
60313;DHT22;46158;52.850;6.970;2022-10-15T13:09:21;16.70;87.30
60313;DHT22;46158;52.850;6.970;2022-10-15T13:11:49;16.70;87.10
60313;DHT22;46158;52.850;6.970;2022-10-15T13:14:33;16.70;87.20
60313;DHT22;46158;52.850;6.970;2022-10-15T13:17:19;16.70;87.10
60313;DHT22;46158;52.850;6.970;2022-10-15T13:19:58;16.70;87.10
60313;DHT22;46158;52.850;6.970;2022-10-15T13:22:30;16.70;87.10
60313;DHT22;46158;52.850;6.970;2022-10-15T13:24:56;16.70;87.10
60313;DHT22;46158;52.850;6.970;2022-10-15T13:32:54;16.70;87.00
60313;DHT22;46158;52.850;6.970;2022-10-15T13:35:23;16.80;87.00
60313;DHT22;46158;52.850;6.970;2022-10-15T13:37:50;16.70;87.00
60313;DHT22;46158;52.850;6.970;2022-10-15T13:40:20;16.70;87.10
60313;DHT22;46158;52.850;6.970;2022-10-15T13:43:05;16.70;87.10
60313;DHT22;46158;52.850;6.970;2022-10-15T13:45:45;16.70;87.10
60313;DHT22;46158;52.850;6.970;2022-10-15T13:48:11;16.70;87.00
60313;DHT22;46158;52.850;6.970;2022-10-15T13:50:39;16.80;87.10
60313;DHT22;46158;52.850;6.970;2022-10-15T13:53:35;16.80;87.10
60313;DHT22;46158;52.850;6.970;2022-10-15T13:56:03;16.80;87.10
60313;DHT22;46158;52.850;6.970;2022-10-15T13:58:36;16.80;87.20
60313;DHT22;46158;52.850;6.970;2022-10-15T14:01:13;16.80;87.10
60313;DHT22;46158;52.850;6.970;2022-10-15T14:03:46;16.80;87.10
60313;DHT22;46158;52.850;6.970;2022-10-15T14:06:32;16.80;87.00
60313;DHT22;46158;52.850;6.970;2022-10-15T14:08:59;16.80;87.00
60313;DHT22;46158;52.850;6.970;2022-10-15T14:11:26;16.80;87.00
60313;DHT22;46158;52.850;6.970;2022-10-15T14:13:54;16.80;87.10
60313;DHT22;46158;52.850;6.970;2022-10-15T14:16:29;16.80;87.00
60313;DHT22;46158;52.850;6.970;2022-10-15T14:21:34;16.80;87.00
60313;DHT22;46158;52.850;6.970;2022-10-15T14:24:13;16.80;87.10
60313;DHT22;46158;52.850;6.970;2022-10-15T14:26:40;16.80;87.00
60313;DHT22;46158;52.850;6.970;2022-10-15T14:29:12;16.80;87.10
60313;DHT22;46158;52.850;6.970;2022-10-15T14:31:45;16.80;87.10
60313;DHT22;46158;52.850;6.970;2022-10-15T14:36:59;16.80;87.00
60313;DHT22;46158;52.850;6.970;2022-10-15T14:39:31;16.80;87.10
60313;DHT22;46158;52.850;6.970;2022-10-15T14:44:47;16.80;87.00
60313;DHT22;46158;52.850;6.970;2022-10-15T14:49:45;16.90;87.10
60313;DHT22;46158;52.850;6.970;2022-10-15T14:52:16;16.80;87.10
60313;DHT22;46158;52.850;6.970;2022-10-15T14:57:26;16.80;87.10
60313;DHT22;46158;52.850;6.970;2022-10-15T14:59:55;16.80;87.10
60313;DHT22;46158;52.850;6.970;2022-10-15T15:02:23;16.90;87.20
60313;DHT22;46158;52.850;6.970;2022-10-15T15:05:18;16.80;87.10
60313;DHT22;46158;52.850;6.970;2022-10-15T15:07:44;16.90;87.10
60313;DHT22;46158;52.850;6.970;2022-10-15T15:10:12;16.90;87.90
60313;DHT22;46158;52.850;6.970;2022-10-15T15:12:38;16.90;87.50
60313;DHT22;46158;52.850;6.970;2022-10-15T15:15:13;16.90;87.60
60313;DHT22;46158;52.850;6.970;2022-10-15T15:17:39;16.90;87.60
60313;DHT22;46158;52.850;6.970;2022-10-15T15:20:05;16.90;87.80
60313;DHT22;46158;52.850;6.970;2022-10-15T15:22:32;16.90;87.80
60313;DHT22;46158;52.850;6.970;2022-10-15T15:25:01;16.90;87.80
60313;DHT22;46158;52.850;6.970;2022-10-15T15:27:29;16.90;87.90
60313;DHT22;46158;52.850;6.970;2022-10-15T15:29:56;16.90;87.90
60313;DHT22;46158;52.850;6.970;2022-10-15T15:32:23;16.90;87.90
60313;DHT22;46158;52.850;6.970;2022-10-15T15:34:50;16.90;87.70
60313;DHT22;46158;52.850;6.970;2022-10-15T15:37:21;16.90;87.60
60313;DHT22;46158;52.850;6.970;2022-10-15T15:39:47;16.90;87.40
60313;DHT22;46158;52.850;6.970;2022-10-15T15:42:15;16.90;87.50
60313;DHT22;46158;52.850;6.970;2022-10-15T15:44:41;16.90;87.50
60313;DHT22;46158;52.850;6.970;2022-10-15T15:47:07;16.90;87.60
60313;DHT22;46158;52.850;6.970;2022-10-15T15:49:33;16.90;87.50
60313;DHT22;46158;52.850;6.970;2022-10-15T15:51:59;16.90;87.60
60313;DHT22;46158;52.850;6.970;2022-10-15T15:54:25;16.90;87.70
60313;DHT22;46158;52.850;6.970;2022-10-15T15:56:50;16.90;87.70
60313;DHT22;46158;52.850;6.970;2022-10-15T15:59:16;16.90;87.80
60313;DHT22;46158;52.850;6.970;2022-10-15T16:01:44;16.90;87.90
60313;DHT22;46158;52.850;6.970;2022-10-15T16:04:11;16.90;88.00
60313;DHT22;46158;52.850;6.970;2022-10-15T16:06:40;16.90;88.20
60313;DHT22;46158;52.850;6.970;2022-10-15T16:09:07;17.00;88.50
60313;DHT22;46158;52.850;6.970;2022-10-15T16:11:33;17.00;88.60
60313;DHT22;46158;52.850;6.970;2022-10-15T16:13:59;17.00;88.80
60313;DHT22;46158;52.850;6.970;2022-10-15T16:16:25;17.00;88.90
60313;DHT22;46158;52.850;6.970;2022-10-15T16:18:51;17.00;89.00
60313;DHT22;46158;52.850;6.970;2022-10-15T16:21:21;17.00;89.10
60313;DHT22;46158;52.850;6.970;2022-10-15T16:23:47;17.10;89.20
60313;DHT22;46158;52.850;6.970;2022-10-15T16:26:12;17.10;89.40
60313;DHT22;46158;52.850;6.970;2022-10-15T16:28:38;17.10;89.50
60313;DHT22;46158;52.850;6.970;2022-10-15T16:31:21;17.10;89.60
60313;DHT22;46158;52.850;6.970;2022-10-15T16:33:48;17.10;89.50
60313;DHT22;46158;52.850;6.970;2022-10-15T16:36:15;17.10;90.10
60313;DHT22;46158;52.850;6.970;2022-10-15T16:38:42;17.20;89.70
60313;DHT22;46158;52.850;6.970;2022-10-15T16:41:08;17.20;89.70
60313;DHT22;46158;52.850;6.970;2022-10-15T16:43:34;17.20;89.60
60313;DHT22;46158;52.850;6.970;2022-10-15T16:46:01;17.20;89.60
60313;DHT22;46158;52.850;6.970;2022-10-15T16:48:31;17.20;89.60
60313;DHT22;46158;52.850;6.970;2022-10-15T16:51:03;17.20;89.50
60313;DHT22;46158;52.850;6.970;2022-10-15T16:53:32;17.30;89.60
60313;DHT22;46158;52.850;6.970;2022-10-15T16:56:06;17.30;89.70
60313;DHT22;46158;52.850;6.970;2022-10-15T16:58:33;17.30;89.60
60313;DHT22;46158;52.850;6.970;2022-10-15T17:01:10;17.30;89.70
60313;DHT22;46158;52.850;6.970;2022-10-15T17:03:37;17.30;89.60
60313;DHT22;46158;52.850;6.970;2022-10-15T17:06:06;17.30;89.80
60313;DHT22;46158;52.850;6.970;2022-10-15T17:08:53;17.30;89.90
60313;DHT22;46158;52.850;6.970;2022-10-15T17:11:24;17.40;89.70
60313;DHT22;46158;52.850;6.970;2022-10-15T17:13:51;17.40;90.00
60313;DHT22;46158;52.850;6.970;2022-10-15T17:16:26;17.40;90.00
60313;DHT22;46158;52.850;6.970;2022-10-15T17:18:53;17.40;90.00
60313;DHT22;46158;52.850;6.970;2022-10-15T17:21:22;17.40;90.00
60313;DHT22;46158;52.850;6.970;2022-10-15T17:23:53;17.40;90.10
60313;DHT22;46158;52.850;6.970;2022-10-15T17:26:22;17.40;90.10
60313;DHT22;46158;52.850;6.970;2022-10-15T17:28:49;17.40;90.10
60313;DHT22;46158;52.850;6.970;2022-10-15T17:31:21;17.50;90.10
60313;DHT22;46158;52.850;6.970;2022-10-15T17:33:47;17.50;90.10
60313;DHT22;46158;52.850;6.970;2022-10-15T17:36:18;17.50;90.40
60313;DHT22;46158;52.850;6.970;2022-10-15T17:38:45;17.60;90.10
60313;DHT22;46158;52.850;6.970;2022-10-15T17:43:38;17.50;90.20
60313;DHT22;46158;52.850;6.970;2022-10-15T17:46:09;17.50;90.20
60313;DHT22;46158;52.850;6.970;2022-10-15T17:48:36;17.60;90.20